sensor_id;sensor_type;location;lat;lon;timestamp;pressure;altitude;pressure_sealevel;temperature;humidity
17438;BME280;73152;52.198;5.422;2023-12-29T00:00:39;100419.38;;;24.96;35.01
17438;BME280;73152;52.198;5.422;2023-12-29T00:03:08;100434.66;;;24.91;35.31
17438;BME280;73152;52.198;5.422;2023-12-29T00:05:37;100419.00;;;24.81;35.27
17438;BME280;73152;52.198;5.422;2023-12-29T00:08:06;100425.28;;;24.75;35.41
17438;BME280;73152;52.198;5.422;2023-12-29T00:10:35;100415.97;;;24.71;35.59
17438;BME280;73152;52.198;5.422;2023-12-29T00:13:04;100411.72;;;24.63;35.53
17438;BME280;73152;52.198;5.422;2023-12-29T00:15:33;100417.13;;;24.63;35.49
17438;BME280;73152;52.198;5.422;2023-12-29T00:18:05;100423.16;;;24.65;35.65
17438;BME280;73152;52.198;5.422;2023-12-29T00:20:33;100432.00;;;24.72;35.48
17438;BME280;73152;52.198;5.422;2023-12-29T00:23:03;100414.16;;;24.83;35.32
17438;BME280;73152;52.198;5.422;2023-12-29T00:25:32;100430.59;;;25.00;35.06
17438;BME280;73152;52.198;5.422;2023-12-29T00:28:01;100421.97;;;25.14;34.63
17438;BME280;73152;52.198;5.422;2023-12-29T00:30:30;100417.41;;;25.26;34.77
17438;BME280;73152;52.198;5.422;2023-12-29T00:32:59;100407.88;;;25.47;34.15
17438;BME280;73152;52.198;5.422;2023-12-29T00:35:30;100396.97;;;25.70;33.91
17438;BME280;73152;52.198;5.422;2023-12-29T00:37:59;100408.91;;;25.81;33.92
17438;BME280;73152;52.198;5.422;2023-12-29T00:40:25;100396.59;;;25.90;33.55
17438;BME280;73152;52.198;5.422;2023-12-29T00:42:54;100396.69;;;26.06;33.41
17438;BME280;73152;52.198;5.422;2023-12-29T00:45:23;100386.72;;;26.24;33.06
17438;BME280;73152;52.198;5.422;2023-12-29T00:47:55;100354.78;;;26.31;32.78
17438;BME280;73152;52.198;5.422;2023-12-29T00:50:24;100373.44;;;26.39;33.00
17438;BME280;73152;52.198;5.422;2023-12-29T00:52:55;100366.44;;;26.43;32.99
17438;BME280;73152;52.198;5.422;2023-12-29T00:55:24;100368.16;;;26.49;32.49
17438;BME280;73152;52.198;5.422;2023-12-29T00:57:53;100376.88;;;26.51;32.68
17438;BME280;73152;52.198;5.422;2023-12-29T01:00:22;100384.81;;;26.52;32.41
17438;BME280;73152;52.198;5.422;2023-12-29T01:02:51;100400.03;;;26.53;32.57
17438;BME280;73152;52.198;5.422;2023-12-29T01:05:20;100386.13;;;26.50;32.42
17438;BME280;73152;52.198;5.422;2023-12-29T01:07:49;100384.47;;;26.49;32.79
17438;BME280;73152;52.198;5.422;2023-12-29T01:10:21;100379.19;;;26.42;32.92
17438;BME280;73152;52.198;5.422;2023-12-29T01:12:50;100379.44;;;26.41;33.07
17438;BME280;73152;52.198;5.422;2023-12-29T01:15:19;100383.09;;;26.35;32.81
17438;BME280;73152;52.198;5.422;2023-12-29T01:17:48;100387.28;;;26.26;33.00
17438;BME280;73152;52.198;5.422;2023-12-29T01:20:16;100389.84;;;26.15;33.28
17438;BME280;73152;52.198;5.422;2023-12-29T01:22:45;100376.00;;;26.05;33.25
17438;BME280;73152;52.198;5.422;2023-12-29T01:25:14;100375.31;;;25.98;33.35
17438;BME280;73152;52.198;5.422;2023-12-29T01:27:46;100378.66;;;25.89;33.65
17438;BME280;73152;52.198;5.422;2023-12-29T01:30:15;100393.09;;;25.78;33.86
17438;BME280;73152;52.198;5.422;2023-12-29T01:32:44;100376.44;;;25.74;33.69
17438;BME280;73152;52.198;5.422;2023-12-29T01:35:13;100372.44;;;25.65;34.02
17438;BME280;73152;52.198;5.422;2023-12-29T01:37:42;100371.16;;;25.56;33.88
17438;BME280;73152;52.198;5.422;2023-12-29T01:40:12;100366.25;;;25.53;34.12
17438;BME280;73152;52.198;5.422;2023-12-29T01:42:42;100368.84;;;25.48;34.37
17438;BME280;73152;52.198;5.422;2023-12-29T01:45:22;100389.56;;;25.42;34.44
17438;BME280;73152;52.198;5.422;2023-12-29T01:47:53;100379.88;;;25.35;34.54
17438;BME280;73152;52.198;5.422;2023-12-29T01:50:22;100379.28;;;25.33;34.54
17438;BME280;73152;52.198;5.422;2023-12-29T01:52:53;100367.03;;;25.30;34.23
17438;BME280;73152;52.198;5.422;2023-12-29T01:55:25;100375.88;;;25.26;34.64
17438;BME280;73152;52.198;5.422;2023-12-29T01:57:56;100377.53;;;25.27;34.67
17438;BME280;73152;52.198;5.422;2023-12-29T02:00:28;100365.75;;;25.21;34.47
17438;BME280;73152;52.198;5.422;2023-12-29T02:02:58;100373.75;;;25.28;34.49
17438;BME280;73152;52.198;5.422;2023-12-29T02:05:29;100365.63;;;25.28;34.48
17438;BME280;73152;52.198;5.422;2023-12-29T02:08:02;100372.81;;;25.22;34.16
17438;BME280;73152;52.198;5.422;2023-12-29T02:10:31;100377.28;;;25.17;34.17
17438;BME280;73152;52.198;5.422;2023-12-29T02:13:00;100390.16;;;25.33;34.31
17438;BME280;73152;52.198;5.422;2023-12-29T02:15:32;100377.88;;;25.42;34.14
17438;BME280;73152;52.198;5.422;2023-12-29T02:18:04;100393.00;;;25.49;34.13
17438;BME280;73152;52.198;5.422;2023-12-29T02:20:35;100387.94;;;25.53;34.09
17438;BME280;73152;52.198;5.422;2023-12-29T02:23:04;100393.09;;;25.66;33.98
17438;BME280;73152;52.198;5.422;2023-12-29T02:25:36;100397.69;;;25.77;33.64
17438;BME280;73152;52.198;5.422;2023-12-29T02:28:17;100394.13;;;25.88;33.46
17438;BME280;73152;52.198;5.422;2023-12-29T02:31:00;100389.72;;;25.99;33.19
17438;BME280;73152;52.198;5.422;2023-12-29T02:33:38;100391.59;;;26.10;33.11
17438;BME280;73152;52.198;5.422;2023-12-29T02:36:10;100377.88;;;26.16;32.99
17438;BME280;73152;52.198;5.422;2023-12-29T02:38:40;100387.22;;;26.21;32.95
17438;BME280;73152;52.198;5.422;2023-12-29T02:41:11;100383.41;;;26.22;32.97
17438;BME280;73152;52.198;5.422;2023-12-29T02:43:41;100387.28;;;26.26;32.88
17438;BME280;73152;52.198;5.422;2023-12-29T02:46:10;100392.34;;;26.34;32.91
17438;BME280;73152;52.198;5.422;2023-12-29T02:48:39;100390.69;;;26.33;32.58
17438;BME280;73152;52.198;5.422;2023-12-29T02:51:08;100367.63;;;26.35;32.84
17438;BME280;73152;52.198;5.422;2023-12-29T02:53:37;100391.88;;;26.37;32.71
17438;BME280;73152;52.198;5.422;2023-12-29T02:56:06;100386.34;;;26.32;32.77
17438;BME280;73152;52.198;5.422;2023-12-29T02:58:37;100371.09;;;26.31;32.75
17438;BME280;73152;52.198;5.422;2023-12-29T03:01:06;100388.69;;;26.28;32.60
17438;BME280;73152;52.198;5.422;2023-12-29T03:03:36;100381.78;;;26.21;32.67
17438;BME280;73152;52.198;5.422;2023-12-29T03:06:06;100373.84;;;26.19;32.99
17438;BME280;73152;52.198;5.422;2023-12-29T03:08:35;100367.28;;;26.15;33.17
17438;BME280;73152;52.198;5.422;2023-12-29T03:11:04;100376.16;;;26.10;33.08
17438;BME280;73152;52.198;5.422;2023-12-29T03:13:32;100382.75;;;26.03;33.19
17438;BME280;73152;52.198;5.422;2023-12-29T03:16:04;100393.84;;;26.01;33.31
17438;BME280;73152;52.198;5.422;2023-12-29T03:18:33;100377.94;;;25.93;33.29
17438;BME280;73152;52.198;5.422;2023-12-29T03:21:05;100393.06;;;25.89;33.50
17438;BME280;73152;52.198;5.422;2023-12-29T03:23:34;100389.06;;;25.80;33.24
17438;BME280;73152;52.198;5.422;2023-12-29T03:26:04;100394.25;;;25.82;33.65
17438;BME280;73152;52.198;5.422;2023-12-29T03:28:33;100389.41;;;25.84;33.49
17438;BME280;73152;52.198;5.422;2023-12-29T03:31:04;100396.13;;;25.81;33.37
17438;BME280;73152;52.198;5.422;2023-12-29T03:33:33;100396.63;;;25.78;33.72
17438;BME280;73152;52.198;5.422;2023-12-29T03:36:02;100386.59;;;25.79;33.60
17438;BME280;73152;52.198;5.422;2023-12-29T03:38:33;100396.97;;;25.82;33.69
17438;BME280;73152;52.198;5.422;2023-12-29T03:41:02;100380.69;;;25.70;33.66
17438;BME280;73152;52.198;5.422;2023-12-29T03:43:31;100395.22;;;25.76;33.42
17438;BME280;73152;52.198;5.422;2023-12-29T03:46:02;100388.25;;;25.80;33.70
17438;BME280;73152;52.198;5.422;2023-12-29T03:48:31;100369.38;;;25.73;33.55
17438;BME280;73152;52.198;5.422;2023-12-29T03:51:00;100378.47;;;25.79;33.77
17438;BME280;73152;52.198;5.422;2023-12-29T03:53:29;100378.56;;;25.72;33.52
17438;BME280;73152;52.198;5.422;2023-12-29T03:55:58;100373.25;;;25.77;33.84
17438;BME280;73152;52.198;5.422;2023-12-29T03:58:27;100365.69;;;25.79;33.52
17438;BME280;73152;52.198;5.422;2023-12-29T04:00:56;100362.06;;;25.74;33.64
17438;BME280;73152;52.198;5.422;2023-12-29T04:03:28;100367.50;;;25.74;33.60
17438;BME280;73152;52.198;5.422;2023-12-29T04:05:56;100369.13;;;25.75;33.82
17438;BME280;73152;52.198;5.422;2023-12-29T04:08:25;100364.53;;;25.75;33.61
17438;BME280;73152;52.198;5.422;2023-12-29T04:10:54;100365.56;;;25.74;33.54
17438;BME280;73152;52.198;5.422;2023-12-29T04:13:23;100372.09;;;25.73;33.53
17438;BME280;73152;52.198;5.422;2023-12-29T04:15:52;100369.38;;;25.73;33.89
17438;BME280;73152;52.198;5.422;2023-12-29T04:18:22;100365.00;;;25.72;33.63
17438;BME280;73152;52.198;5.422;2023-12-29T04:20:54;100362.28;;;25.72;34.07
17438;BME280;73152;52.198;5.422;2023-12-29T04:23:23;100368.78;;;25.71;33.63
17438;BME280;73152;52.198;5.422;2023-12-29T04:25:52;100361.13;;;25.68;33.89
17438;BME280;73152;52.198;5.422;2023-12-29T04:28:21;100368.44;;;25.68;33.98
17438;BME280;73152;52.198;5.422;2023-12-29T04:30:49;100364.31;;;25.65;34.14
17438;BME280;73152;52.198;5.422;2023-12-29T04:33:18;100351.22;;;25.62;33.91
17438;BME280;73152;52.198;5.422;2023-12-29T04:35:47;100352.53;;;25.60;34.25
17438;BME280;73152;52.198;5.422;2023-12-29T04:38:19;100364.44;;;25.59;34.54
17438;BME280;73152;52.198;5.422;2023-12-29T04:40:47;100359.63;;;25.49;34.00
17438;BME280;73152;52.198;5.422;2023-12-29T04:43:16;100361.03;;;25.51;34.39
17438;BME280;73152;52.198;5.422;2023-12-29T04:45:45;100362.81;;;25.46;34.28
17438;BME280;73152;52.198;5.422;2023-12-29T04:48:14;100350.63;;;25.37;34.42
17438;BME280;73152;52.198;5.422;2023-12-29T04:50:43;100370.34;;;25.44;34.56
17438;BME280;73152;52.198;5.422;2023-12-29T04:53:12;100350.16;;;25.40;34.57
17438;BME280;73152;52.198;5.422;2023-12-29T04:55:43;100357.59;;;25.33;34.41
17438;BME280;73152;52.198;5.422;2023-12-29T04:58:12;100351.94;;;25.34;34.69
17438;BME280;73152;52.198;5.422;2023-12-29T05:00:41;100345.13;;;25.32;34.73
17438;BME280;73152;52.198;5.422;2023-12-29T05:03:10;100340.16;;;25.29;34.83
17438;BME280;73152;52.198;5.422;2023-12-29T05:05:38;100349.84;;;25.25;34.60
17438;BME280;73152;52.198;5.422;2023-12-29T05:08:07;100349.00;;;25.24;34.87
17438;BME280;73152;52.198;5.422;2023-12-29T05:10:37;100351.97;;;25.23;34.77
17438;BME280;73152;52.198;5.422;2023-12-29T05:13:08;100348.06;;;25.19;34.86
17438;BME280;73152;52.198;5.422;2023-12-29T05:15:37;100338.28;;;25.18;34.56
17438;BME280;73152;52.198;5.422;2023-12-29T05:18:06;100334.84;;;25.22;34.58
17438;BME280;73152;52.198;5.422;2023-12-29T05:20:35;100340.88;;;25.24;34.88
17438;BME280;73152;52.198;5.422;2023-12-29T05:23:04;100351.97;;;25.23;34.66
17438;BME280;73152;52.198;5.422;2023-12-29T05:25:33;100368.56;;;25.26;34.56
17438;BME280;73152;52.198;5.422;2023-12-29T05:28:01;100357.72;;;25.26;34.57
17438;BME280;73152;52.198;5.422;2023-12-29T05:30:33;100367.28;;;25.29;34.72
17438;BME280;73152;52.198;5.422;2023-12-29T05:33:02;100364.31;;;25.30;34.68
17438;BME280;73152;52.198;5.422;2023-12-29T05:35:31;100356.66;;;25.39;34.21
17438;BME280;73152;52.198;5.422;2023-12-29T05:38:00;100352.19;;;25.44;34.49
17438;BME280;73152;52.198;5.422;2023-12-29T05:40:29;100354.28;;;25.42;34.04
17438;BME280;73152;52.198;5.422;2023-12-29T05:42:58;100352.78;;;25.46;34.47
17438;BME280;73152;52.198;5.422;2023-12-29T05:45:27;100363.03;;;25.56;33.95
17438;BME280;73152;52.198;5.422;2023-12-29T05:47:59;100357.72;;;25.61;33.86
17438;BME280;73152;52.198;5.422;2023-12-29T05:50:28;100358.28;;;25.63;33.88
17438;BME280;73152;52.198;5.422;2023-12-29T05:52:57;100358.88;;;25.65;33.89
17438;BME280;73152;52.198;5.422;2023-12-29T05:55:26;100366.31;;;25.70;33.78
17438;BME280;73152;52.198;5.422;2023-12-29T05:57:55;100371.25;;;25.73;34.13
17438;BME280;73152;52.198;5.422;2023-12-29T06:00:24;100357.44;;;25.74;34.02
17438;BME280;73152;52.198;5.422;2023-12-29T06:02:53;100365.94;;;25.78;34.13
17438;BME280;73152;52.198;5.422;2023-12-29T06:05:25;100352.13;;;25.79;33.92
17438;BME280;73152;52.198;5.422;2023-12-29T06:07:54;100360.75;;;25.76;33.70
17438;BME280;73152;52.198;5.422;2023-12-29T06:10:23;100360.84;;;25.81;33.95
17438;BME280;73152;52.198;5.422;2023-12-29T06:12:52;100368.97;;;25.81;33.88
17438;BME280;73152;52.198;5.422;2023-12-29T06:15:21;100357.06;;;25.82;33.66
17438;BME280;73152;52.198;5.422;2023-12-29T06:17:50;100360.38;;;25.84;33.66
17438;BME280;73152;52.198;5.422;2023-12-29T06:20:19;100365.22;;;25.82;33.52
17438;BME280;73152;52.198;5.422;2023-12-29T06:22:51;100367.34;;;25.80;33.49
17438;BME280;73152;52.198;5.422;2023-12-29T06:25:20;100356.25;;;25.82;33.74
17438;BME280;73152;52.198;5.422;2023-12-29T06:27:49;100353.19;;;25.78;33.55
17438;BME280;73152;52.198;5.422;2023-12-29T06:30:18;100362.75;;;25.81;33.86
17438;BME280;73152;52.198;5.422;2023-12-29T06:32:47;100360.25;;;25.79;33.76
17438;BME280;73152;52.198;5.422;2023-12-29T06:35:18;100357.53;;;25.79;33.82
17438;BME280;73152;52.198;5.422;2023-12-29T06:37:49;100365.09;;;25.77;33.78
17438;BME280;73152;52.198;5.422;2023-12-29T06:40:18;100357.53;;;25.79;33.69
17438;BME280;73152;52.198;5.422;2023-12-29T06:42:47;100365.34;;;25.76;33.81
17438;BME280;73152;52.198;5.422;2023-12-29T06:45:16;100361.81;;;25.75;33.98
17438;BME280;73152;52.198;5.422;2023-12-29T06:47:46;100355.09;;;25.78;33.68
17438;BME280;73152;52.198;5.422;2023-12-29T06:50:15;100345.06;;;25.78;33.92
17438;BME280;73152;52.198;5.422;2023-12-29T06:52:44;100341.41;;;25.73;33.83
17438;BME280;73152;52.198;5.422;2023-12-29T06:55:15;100345.53;;;25.75;33.97
17438;BME280;73152;52.198;5.422;2023-12-29T06:57:45;100348.81;;;25.77;34.10
17438;BME280;73152;52.198;5.422;2023-12-29T07:00:14;100336.34;;;25.76;33.93
17438;BME280;73152;52.198;5.422;2023-12-29T07:02:43;100341.53;;;25.66;34.01
17438;BME280;73152;52.198;5.422;2023-12-29T07:05:13;100353.00;;;25.57;34.10
17438;BME280;73152;52.198;5.422;2023-12-29T07:07:42;100334.47;;;25.42;34.15
17438;BME280;73152;52.198;5.422;2023-12-29T07:10:15;100340.50;;;25.21;34.32
17438;BME280;73152;52.198;5.422;2023-12-29T07:12:44;100349.72;;;24.97;34.74
17438;BME280;73152;52.198;5.422;2023-12-29T07:15:13;100360.69;;;24.90;35.23
17438;BME280;73152;52.198;5.422;2023-12-29T07:17:42;100353.31;;;24.79;35.16
17438;BME280;73152;52.198;5.422;2023-12-29T07:20:12;100353.28;;;24.67;35.37
17438;BME280;73152;52.198;5.422;2023-12-29T07:22:41;100341.25;;;24.63;35.76
17438;BME280;73152;52.198;5.422;2023-12-29T07:25:10;100341.00;;;24.53;35.58
17438;BME280;73152;52.198;5.422;2023-12-29T07:27:42;100342.31;;;24.51;35.63
17438;BME280;73152;52.198;5.422;2023-12-29T07:30:13;100348.63;;;24.45;35.67
17438;BME280;73152;52.198;5.422;2023-12-29T07:32:42;100358.41;;;24.34;36.32
17438;BME280;73152;52.198;5.422;2023-12-29T07:35:11;100358.50;;;24.28;36.36
17438;BME280;73152;52.198;5.422;2023-12-29T07:37:42;100355.75;;;24.16;36.63
17438;BME280;73152;52.198;5.422;2023-12-29T07:40:13;100365.84;;;24.09;36.68
17438;BME280;73152;52.198;5.422;2023-12-29T07:42:45;100362.34;;;24.02;36.86
17438;BME280;73152;52.198;5.422;2023-12-29T07:45:16;100367.47;;;24.10;36.58
17438;BME280;73152;52.198;5.422;2023-12-29T07:47:45;100367.84;;;24.43;36.33
17438;BME280;73152;52.198;5.422;2023-12-29T07:50:14;100356.91;;;25.03;35.14
17438;BME280;73152;52.198;5.422;2023-12-29T07:52:44;100354.00;;;25.90;33.80
17438;BME280;73152;52.198;5.422;2023-12-29T07:55:13;100360.16;;;26.87;32.09
17438;BME280;73152;52.198;5.422;2023-12-29T07:57:45;100376.44;;;27.97;30.47
17438;BME280;73152;52.198;5.422;2023-12-29T08:00:16;100366.09;;;28.74;29.70
17438;BME280;73152;52.198;5.422;2023-12-29T08:02:45;100372.44;;;29.48;28.42
17438;BME280;73152;52.198;5.422;2023-12-29T08:05:14;100367.22;;;29.98;27.52
17438;BME280;73152;52.198;5.422;2023-12-29T08:07:43;100379.00;;;30.04;27.62
17438;BME280;73152;52.198;5.422;2023-12-29T08:10:12;100378.97;;;30.09;27.55
17438;BME280;73152;52.198;5.422;2023-12-29T08:12:42;100375.13;;;29.90;27.76
17438;BME280;73152;52.198;5.422;2023-12-29T08:15:13;100372.00;;;29.71;28.01
17438;BME280;73152;52.198;5.422;2023-12-29T08:17:43;100365.31;;;29.47;27.98
17438;BME280;73152;52.198;5.422;2023-12-29T08:20:12;100364.06;;;29.23;28.38
17438;BME280;73152;52.198;5.422;2023-12-29T08:22:41;100374.72;;;28.92;28.91
17438;BME280;73152;52.198;5.422;2023-12-29T08:25:10;100386.50;;;28.66;29.20
17438;BME280;73152;52.198;5.422;2023-12-29T08:27:39;100388.84;;;28.31;29.51
17438;BME280;73152;52.198;5.422;2023-12-29T08:30:09;100387.41;;;28.02;30.23
17438;BME280;73152;52.198;5.422;2023-12-29T08:32:41;100377.19;;;27.71;30.56
17438;BME280;73152;52.198;5.422;2023-12-29T08:35:10;100378.41;;;27.41;31.18
17438;BME280;73152;52.198;5.422;2023-12-29T08:37:39;100375.28;;;27.16;31.66
17438;BME280;73152;52.198;5.422;2023-12-29T08:40:09;100370.56;;;26.90;31.82
17438;BME280;73152;52.198;5.422;2023-12-29T08:42:38;100356.25;;;26.66;32.24
17438;BME280;73152;52.198;5.422;2023-12-29T08:45:08;100363.47;;;26.44;32.74
17438;BME280;73152;52.198;5.422;2023-12-29T08:47:40;100357.81;;;26.17;32.99
17438;BME280;73152;52.198;5.422;2023-12-29T08:50:09;100357.97;;;25.99;33.15
17438;BME280;73152;52.198;5.422;2023-12-29T08:52:38;100358.75;;;25.83;33.59
17438;BME280;73152;52.198;5.422;2023-12-29T08:55:08;100371.66;;;25.53;33.90
17438;BME280;73152;52.198;5.422;2023-12-29T08:57:36;100367.41;;;25.45;34.40
17438;BME280;73152;52.198;5.422;2023-12-29T09:00:07;100369.75;;;25.30;34.50
17438;BME280;73152;52.198;5.422;2023-12-29T09:02:36;100369.53;;;25.09;34.76
17438;BME280;73152;52.198;5.422;2023-12-29T09:05:08;100371.53;;;25.02;34.85
17438;BME280;73152;52.198;5.422;2023-12-29T09:07:37;100370.09;;;24.88;35.03
17438;BME280;73152;52.198;5.422;2023-12-29T09:10:07;100373.91;;;24.68;35.36
17438;BME280;73152;52.198;5.422;2023-12-29T09:12:38;100379.19;;;24.63;35.52
17438;BME280;73152;52.198;5.422;2023-12-29T09:15:08;100384.81;;;24.50;36.04
17438;BME280;73152;52.198;5.422;2023-12-29T09:17:37;100379.59;;;24.37;36.34
17438;BME280;73152;52.198;5.422;2023-12-29T09:20:10;100382.78;;;24.34;36.28
17438;BME280;73152;52.198;5.422;2023-12-29T09:22:40;100385.69;;;24.33;36.12
17438;BME280;73152;52.198;5.422;2023-12-29T09:25:09;100397.31;;;24.51;35.95
17438;BME280;73152;52.198;5.422;2023-12-29T09:27:38;100404.06;;;25.02;35.29
17438;BME280;73152;52.198;5.422;2023-12-29T09:30:09;100393.97;;;25.55;34.56
17438;BME280;73152;52.198;5.422;2023-12-29T09:32:38;100398.91;;;26.09;33.84
17438;BME280;73152;52.198;5.422;2023-12-29T09:35:09;100390.47;;;26.79;32.81
17438;BME280;73152;52.198;5.422;2023-12-29T09:37:38;100396.75;;;27.29;32.25
17438;BME280;73152;52.198;5.422;2023-12-29T09:40:10;100390.44;;;27.84;31.82
17438;BME280;73152;52.198;5.422;2023-12-29T09:42:42;100400.91;;;28.13;31.30
17438;BME280;73152;52.198;5.422;2023-12-29T09:45:13;100386.84;;;28.21;31.11
17438;BME280;73152;52.198;5.422;2023-12-29T09:47:43;100397.69;;;28.16;31.11
17438;BME280;73152;52.198;5.422;2023-12-29T09:50:14;100402.22;;;27.89;31.47
17438;BME280;73152;52.198;5.422;2023-12-29T09:52:48;100396.19;;;27.66;31.83
17438;BME280;73152;52.198;5.422;2023-12-29T09:55:17;100400.19;;;27.41;32.40
17438;BME280;73152;52.198;5.422;2023-12-29T09:57:47;100403.06;;;27.18;32.95
17438;BME280;73152;52.198;5.422;2023-12-29T10:00:18;100395.16;;;27.00;33.09
17438;BME280;73152;52.198;5.422;2023-12-29T10:02:51;100384.53;;;26.82;33.15
17438;BME280;73152;52.198;5.422;2023-12-29T10:05:24;100387.47;;;26.64;33.53
17438;BME280;73152;52.198;5.422;2023-12-29T10:07:53;100393.84;;;26.41;34.04
17438;BME280;73152;52.198;5.422;2023-12-29T10:10:25;100389.53;;;26.29;34.44
17438;BME280;73152;52.198;5.422;2023-12-29T10:12:55;100397.63;;;26.12;34.81
17438;BME280;73152;52.198;5.422;2023-12-29T10:15:34;100396.81;;;25.88;35.05
17438;BME280;73152;52.198;5.422;2023-12-29T10:18:18;100415.53;;;25.73;35.13
17438;BME280;73152;52.198;5.422;2023-12-29T10:21:03;100422.38;;;25.52;35.92
17438;BME280;73152;52.198;5.422;2023-12-29T10:23:42;100405.50;;;25.39;35.97
17438;BME280;73152;52.198;5.422;2023-12-29T10:26:12;100407.00;;;25.23;36.21
17438;BME280;73152;52.198;5.422;2023-12-29T10:28:43;100392.41;;;25.13;36.20
17438;BME280;73152;52.198;5.422;2023-12-29T10:31:15;100400.75;;;25.00;36.73
17438;BME280;73152;52.198;5.422;2023-12-29T10:33:44;100398.25;;;24.87;37.02
17438;BME280;73152;52.198;5.422;2023-12-29T10:36:19;100388.19;;;24.75;37.54
17438;BME280;73152;52.198;5.422;2023-12-29T10:38:48;100401.72;;;24.64;37.63
17438;BME280;73152;52.198;5.422;2023-12-29T10:41:19;100398.97;;;24.52;37.67
17438;BME280;73152;52.198;5.422;2023-12-29T10:43:47;100398.69;;;24.42;37.75
17438;BME280;73152;52.198;5.422;2023-12-29T10:46:18;100407.34;;;24.33;38.13
17438;BME280;73152;52.198;5.422;2023-12-29T10:48:47;100413.47;;;24.28;38.00
17438;BME280;73152;52.198;5.422;2023-12-29T10:51:27;100408.53;;;24.25;38.08
17438;BME280;73152;52.198;5.422;2023-12-29T10:53:56;100415.44;;;24.21;38.00
17438;BME280;73152;52.198;5.422;2023-12-29T10:56:26;100421.19;;;24.13;38.01
17438;BME280;73152;52.198;5.422;2023-12-29T10:59:00;100428.03;;;24.15;38.14
17438;BME280;73152;52.198;5.422;2023-12-29T11:01:30;100437.34;;;24.20;38.28
17438;BME280;73152;52.198;5.422;2023-12-29T11:04:00;100438.91;;;24.27;37.89
17438;BME280;73152;52.198;5.422;2023-12-29T11:06:41;100430.28;;;24.48;37.58
17438;BME280;73152;52.198;5.422;2023-12-29T11:09:12;100432.56;;;24.63;36.97
17438;BME280;73152;52.198;5.422;2023-12-29T11:11:43;100432.56;;;24.81;36.77
17438;BME280;73152;52.198;5.422;2023-12-29T11:14:13;100416.53;;;25.03;36.22
17438;BME280;73152;52.198;5.422;2023-12-29T11:16:44;100421.06;;;25.32;35.93
17438;BME280;73152;52.198;5.422;2023-12-29T11:19:15;100432.41;;;25.52;35.85
17438;BME280;73152;52.198;5.422;2023-12-29T11:21:49;100437.38;;;25.55;35.60
17438;BME280;73152;52.198;5.422;2023-12-29T11:24:20;100450.34;;;25.65;35.48
17438;BME280;73152;52.198;5.422;2023-12-29T11:26:50;100449.84;;;25.79;35.12
17438;BME280;73152;52.198;5.422;2023-12-29T11:29:19;100451.75;;;25.90;34.56
17438;BME280;73152;52.198;5.422;2023-12-29T11:31:51;100444.94;;;26.04;34.69
17438;BME280;73152;52.198;5.422;2023-12-29T11:34:35;100448.88;;;26.08;34.75
17438;BME280;73152;52.198;5.422;2023-12-29T11:37:27;100435.50;;;26.07;34.61
17438;BME280;73152;52.198;5.422;2023-12-29T11:40:14;100441.50;;;26.09;34.32
17438;BME280;73152;52.198;5.422;2023-12-29T11:42:49;100438.72;;;26.15;34.37
17438;BME280;73152;52.198;5.422;2023-12-29T11:45:30;100457.00;;;26.08;34.44
17438;BME280;73152;52.198;5.422;2023-12-29T11:48:00;100445.66;;;26.00;34.88
17438;BME280;73152;52.198;5.422;2023-12-29T11:50:31;100450.41;;;25.93;35.03
17438;BME280;73152;52.198;5.422;2023-12-29T11:53:05;100441.94;;;25.89;34.95
17438;BME280;73152;52.198;5.422;2023-12-29T11:55:36;100443.25;;;25.75;35.05
17438;BME280;73152;52.198;5.422;2023-12-29T11:58:24;100454.69;;;25.66;35.71
17438;BME280;73152;52.198;5.422;2023-12-29T12:00:55;100452.00;;;25.54;35.63
17438;BME280;73152;52.198;5.422;2023-12-29T12:03:26;100447.75;;;25.46;35.64
17438;BME280;73152;52.198;5.422;2023-12-29T12:05:56;100439.34;;;25.36;35.88
17438;BME280;73152;52.198;5.422;2023-12-29T12:08:33;100442.28;;;25.35;36.32
17438;BME280;73152;52.198;5.422;2023-12-29T12:11:41;100449.22;;;25.19;36.65
17438;BME280;73152;52.198;5.422;2023-12-29T12:14:10;100443.09;;;25.12;36.50
17438;BME280;73152;52.198;5.422;2023-12-29T12:16:51;100447.56;;;25.07;36.51
17438;BME280;73152;52.198;5.422;2023-12-29T12:19:21;100453.91;;;25.01;36.98
17438;BME280;73152;52.198;5.422;2023-12-29T12:21:54;100439.19;;;24.97;36.97
17438;BME280;73152;52.198;5.422;2023-12-29T12:24:28;100447.41;;;24.90;36.92
17438;BME280;73152;52.198;5.422;2023-12-29T12:26:57;100439.75;;;24.87;37.14
17438;BME280;73152;52.198;5.422;2023-12-29T12:29:28;100430.91;;;24.92;37.47
17438;BME280;73152;52.198;5.422;2023-12-29T12:31:58;100437.38;;;24.91;37.36
17438;BME280;73152;52.198;5.422;2023-12-29T12:34:37;100429.25;;;24.91;37.58
17438;BME280;73152;52.198;5.422;2023-12-29T12:37:06;100436.91;;;24.82;37.23
17438;BME280;73152;52.198;5.422;2023-12-29T12:39:41;100438.19;;;24.79;37.17
17438;BME280;73152;52.198;5.422;2023-12-29T12:42:10;100443.59;;;24.79;37.31
17438;BME280;73152;52.198;5.422;2023-12-29T12:44:42;100432.75;;;24.79;37.44
17438;BME280;73152;52.198;5.422;2023-12-29T12:47:25;100426.50;;;24.79;37.50
17438;BME280;73152;52.198;5.422;2023-12-29T12:49:55;100423.09;;;24.83;37.14
17438;BME280;73152;52.198;5.422;2023-12-29T12:52:24;100422.50;;;24.81;37.38
17438;BME280;73152;52.198;5.422;2023-12-29T12:54:56;100420.63;;;24.82;37.53
17438;BME280;73152;52.198;5.422;2023-12-29T12:57:25;100423.94;;;24.84;37.33
17438;BME280;73152;52.198;5.422;2023-12-29T12:59:56;100418.31;;;24.86;37.13
17438;BME280;73152;52.198;5.422;2023-12-29T13:02:26;100406.16;;;24.88;37.08
17438;BME280;73152;52.198;5.422;2023-12-29T13:04:57;100416.78;;;24.90;37.09
17438;BME280;73152;52.198;5.422;2023-12-29T13:07:29;100418.41;;;24.91;37.12